Time;durP1;ratioP1;P1;durP2;ratioP2;P2;SDS_P1;SDS_P2;PMS_P1;PMS_P2;Temp;Humidity;BMP_temperature;BMP_pressure;BME280_temperature;BME280_humidity;BME280_pressure;Samples;Min_cycle;Max_cycle;Signal;HPM_P1;HPM_P2
2021/04/16 00:00:57;;;;;;;19.37;13.27;;;;;;;5.24;81.78;100122.67;115465;1199;102817;-82
2021/04/16 00:03:25;;;;;;;20.03;13.90;;;;;;;5.21;81.71;100118.39;115350;1199;103114;-82
2021/04/16 00:05:55;;;;;;;18.10;12.90;;;;;;;5.19;81.61;100122.70;115430;1199;103060;-82
2021/04/16 00:08:27;;;;;;;17.90;13.50;;;;;;;5.18;81.49;100120.14;115334;1199;103037;-82
2021/04/16 00:10:59;;;;;;;19.03;13.93;;;;;;;5.16;81.86;100120.16;115505;1200;101895;-82
2021/04/16 00:13:28;;;;;;;22.27;13.53;;;;;;;5.14;81.41;100114.16;115364;1200;103095;-82
2021/04/16 00:15:58;;;;;;;18.40;13.30;;;;;;;5.14;81.59;100116.73;115359;1198;103012;-82
2021/04/16 00:18:29;;;;;;;18.70;13.07;;;;;;;5.15;81.73;100113.28;115704;1199;102990;-82
2021/04/16 00:20:58;;;;;;;19.10;13.13;;;;;;;5.15;81.41;100110.69;115335;1200;103070;-82
2021/04/16 00:23:27;;;;;;;17.40;12.77;;;;;;;5.14;81.06;100111.56;115403;1200;103051;-82
2021/04/16 00:25:57;;;;;;;17.80;12.73;;;;;;;5.12;81.49;100108.15;115446;1199;103111;-82
2021/04/16 00:28:25;;;;;;;17.43;12.03;;;;;;;5.09;81.48;100103.88;115329;1198;103059;-83
2021/04/16 00:31:03;;;;;;;16.80;12.00;;;;;;;5.11;81.61;100098.69;115317;1199;103057;-82
2021/04/16 00:33:31;;;;;;;16.65;12.65;;;;;;;5.11;81.62;100103.86;115297;1199;103207;-82
2021/04/16 00:35:59;;;;;;;17.70;12.40;;;;;;;5.12;81.53;100103.83;115422;1200;102992;-81
2021/04/16 00:38:27;;;;;;;16.50;11.90;;;;;;;5.11;81.46;100101.27;115328;1198;103041;-83
2021/04/16 00:40:58;;;;;;;16.77;11.63;;;;;;;5.11;81.57;100101.27;115332;1199;103028;-81
2021/04/16 00:43:28;;;;;;;17.67;12.13;;;;;;;5.14;81.76;100098.64;115363;1200;102980;-81
2021/04/16 00:46:08;;;;;;;17.40;12.23;;;;;;;5.13;81.56;100089.17;115331;1199;103185;-83
2021/04/16 00:48:37;;;;;;;19.23;12.53;;;;;;;5.14;81.37;100093.47;115536;1200;102890;-83
2021/04/16 00:51:17;;;;;;;18.27;12.63;;;;;;;5.15;81.61;100093.45;115318;1199;103070;-82
2021/04/16 00:53:45;;;;;;;17.40;13.00;;;;;;;5.18;81.73;100087.38;115576;1198;102864;-82
2021/04/16 00:56:13;;;;;;;18.43;13.33;;;;;;;5.17;81.76;100075.33;115353;1199;103005;-83
2021/04/16 00:58:42;;;;;;;17.83;12.07;;;;;;;5.17;81.63;100085.67;115558;1199;103053;-83
2021/04/16 01:01:09;;;;;;;17.77;11.97;;;;;;;5.15;81.31;100087.42;115301;1200;102874;-82
2021/04/16 01:03:37;;;;;;;17.30;11.87;;;;;;;5.15;81.34;100084.84;115399;1199;103210;-83
2021/04/16 01:06:08;;;;;;;20.67;13.10;;;;;;;5.13;81.66;100081.42;115571;1198;103114;-82
2021/04/16 01:08:37;;;;;;;15.03;10.77;;;;;;;5.10;81.63;100084.05;115332;1199;104710;-83
2021/04/16 01:11:09;;;;;;;17.57;11.63;;;;;;;5.08;81.40;100076.31;115344;1199;103076;-83
2021/04/16 01:13:38;;;;;;;16.83;12.10;;;;;;;5.10;81.52;100079.73;115308;1199;103185;-82
2021/04/16 01:16:10;;;;;;;16.80;11.20;;;;;;;5.11;81.63;100071.11;115315;1199;103101;-83
2021/04/16 01:18:42;;;;;;;17.20;12.23;;;;;;;5.12;81.44;100066.78;115353;1199;103009;-83
2021/04/16 01:21:15;;;;;;;17.33;11.87;;;;;;;5.11;81.51;100067.66;115512;1199;102954;-83
2021/04/16 01:23:55;;;;;;;16.67;11.63;;;;;;;5.10;81.38;100066.81;115562;1197;103018;-83
2021/04/16 01:26:27;;;;;;;15.77;10.70;;;;;;;5.09;81.62;100059.08;115221;1200;103088;-82
2021/04/16 01:28:55;;;;;;;15.90;10.60;;;;;;;5.06;81.47;100062.56;115254;1197;103047;-82
2021/04/16 01:31:25;;;;;;;17.37;11.60;;;;;;;5.07;81.83;100055.66;115423;1200;101332;-82
2021/04/16 01:33:53;;;;;;;16.30;10.40;;;;;;;5.06;81.37;100057.39;115236;1199;103035;-82
2021/04/16 01:36:33;;;;;;;15.63;10.40;;;;;;;5.06;81.46;100057.39;115276;1198;105547;-82
2021/04/16 01:39:04;;;;;;;14.20;10.30;;;;;;;5.06;81.75;100053.95;115497;1199;103118;-82
2021/04/16 01:41:32;;;;;;;15.73;10.53;;;;;;;5.04;81.60;100055.70;115247;1199;102824;-83
2021/04/16 01:44:04;;;;;;;14.00;10.63;;;;;;;5.05;81.56;100060.00;115433;1199;103050;-83
2021/04/16 01:46:54;;;;;;;12.73;9.83;;;;;;;5.05;81.76;100055.69;115316;1198;103012;-83
2021/04/16 01:49:25;;;;;;;14.30;9.07;;;;;;;5.07;81.85;100055.66;115438;1198;101374;-83
2021/04/16 01:51:53;;;;;;;15.33;9.80;;;;;;;5.05;81.83;100055.69;115474;1200;103255;-82
2021/04/16 01:54:26;;;;;;;15.77;9.83;;;;;;;5.04;81.79;100055.70;115347;1199;103037;-82
2021/04/16 01:57:04;;;;;;;11.30;8.95;;;;;;;5.00;81.68;100048.84;115262;1198;102985;-82
2021/04/16 01:59:35;;;;;;;14.43;9.70;;;;;;;5.00;81.97;100048.84;115398;1199;103169;-83
2021/04/16 02:02:05;;;;;;;18.03;11.20;;;;;;;4.99;82.21;100044.55;115564;1199;103105;-82
2021/04/16 02:04:33;;;;;;;13.53;9.70;;;;;;;4.96;82.01;100044.59;115303;1199;103137;-82
2021/04/16 02:07:00;;;;;;;13.80;9.20;;;;;;;4.93;81.80;100039.47;115561;1199;103022;-82
2021/04/16 02:09:31;;;;;;;14.23;9.63;;;;;;;4.92;81.74;100040.34;115234;1198;103111;-83
2021/04/16 02:11:59;;;;;;;12.03;8.63;;;;;;;4.93;81.96;100045.48;115310;1200;103140;-83
2021/04/16 02:14:29;;;;;;;12.03;9.07;;;;;;;4.93;81.94;100034.30;115255;1199;101511;-82
2021/04/16 02:17:03;;;;;;;13.37;8.97;;;;;;;4.93;81.94;100037.73;115279;1200;103267;-82
2021/04/16 02:19:30;;;;;;;12.30;9.37;;;;;;;4.94;81.96;100030.84;115362;1198;103130;-82
2021/04/16 02:21:58;;;;;;;12.50;9.50;;;;;;;4.94;82.03;100036.00;115242;1199;103076;-82
2021/04/16 02:24:26;;;;;;;11.97;8.90;;;;;;;4.94;82.22;100025.67;115320;1199;102980;-82
2021/04/16 02:26:54;;;;;;;12.73;8.60;;;;;;;4.94;81.82;100020.50;115292;1200;103033;-82
2021/04/16 02:29:22;;;;;;;13.13;9.77;;;;;;;4.92;81.98;100025.69;115458;1199;103037;-82
2021/04/16 02:31:50;;;;;;;17.07;10.50;;;;;;;4.90;82.19;100036.92;115254;1198;103117;-82
2021/04/16 02:34:23;;;;;;;13.57;9.03;;;;;;;4.88;82.16;100042.11;115298;1199;103037;-82
2021/04/16 02:36:54;;;;;;;13.63;9.43;;;;;;;4.85;81.98;100047.33;115401;1200;103017;-82
2021/04/16 02:39:24;;;;;;;12.10;8.10;;;;;;;4.82;81.93;100037.85;115380;1200;101982;-82
2021/04/16 02:41:52;;;;;;;12.67;9.23;;;;;;;4.80;81.90;100026.69;115264;1199;103239;-82
2021/04/16 02:44:21;;;;;;;11.03;8.50;;;;;;;4.76;81.82;100032.77;115382;1199;103557;-82
2021/04/16 02:46:49;;;;;;;13.70;8.90;;;;;;;4.75;82.10;100041.39;115308;1199;103047;-82
2021/04/16 02:49:18;;;;;;;13.05;9.05;;;;;;;4.76;82.09;100031.92;115326;1199;103134;-82
2021/04/16 02:51:47;;;;;;;12.57;9.10;;;;;;;4.75;82.17;100045.70;115334;1200;103055;-82
2021/04/16 02:54:15;;;;;;;12.57;9.17;;;;;;;4.73;82.23;100037.98;115275;1200;101418;-82
2021/04/16 02:56:43;;;;;;;15.53;7.80;;;;;;;4.72;81.95;100036.27;115318;1200;103587;-83
2021/04/16 02:59:11;;;;;;;12.30;8.30;;;;;;;4.72;82.37;100036.27;115457;1199;103113;-83
2021/04/16 03:01:38;;;;;;;12.77;8.33;;;;;;;4.71;82.16;100044.05;115228;1199;103017;-83
2021/04/16 03:04:06;;;;;;;11.17;7.90;;;;;;;4.70;82.18;100042.34;115307;1199;104568;-83
2021/04/16 03:06:34;;;;;;;9.77;8.10;;;;;;;4.71;82.04;100034.56;115299;1199;103002;-82
2021/04/16 03:09:04;;;;;;;12.37;7.67;;;;;;;4.72;82.15;100038.86;115296;1199;103070;-82
2021/04/16 03:11:32;;;;;;;12.40;7.90;;;;;;;4.74;82.25;100037.11;115266;1199;103094;-82
2021/04/16 03:14:00;;;;;;;11.90;7.93;;;;;;;4.75;82.09;100036.23;115307;1199;103091;-82
2021/04/16 03:16:29;;;;;;;12.93;8.00;;;;;;;4.75;82.13;100036.23;115523;1199;102004;-82
2021/04/16 03:18:58;;;;;;;10.83;7.50;;;;;;;4.77;82.25;100034.48;115327;1199;103568;-82
2021/04/16 03:21:27;;;;;;;11.30;7.60;;;;;;;4.78;81.96;100035.33;115583;1199;103012;-82
2021/04/16 03:23:55;;;;;;;10.20;7.27;;;;;;;4.78;82.00;100025.85;115319;1199;101258;-82
2021/04/16 03:26:24;;;;;;;9.73;7.33;;;;;;;4.78;81.93;100031.02;115286;1199;103067;-82
2021/04/16 03:28:56;;;;;;;10.80;7.87;;;;;;;4.77;82.09;100024.14;115265;1199;103047;-82
2021/04/16 03:31:25;;;;;;;14.07;8.60;;;;;;;4.77;82.04;100029.31;115366;1199;101382;-82
2021/04/16 03:33:54;;;;;;;9.27;7.20;;;;;;;4.74;81.94;100028.50;115344;1199;103101;-82
2021/04/16 03:36:23;;;;;;;11.15;7.30;;;;;;;4.73;82.07;100032.81;115387;1199;102980;-82
2021/04/16 03:38:51;;;;;;;10.30;7.77;;;;;;;4.73;81.93;100025.06;115343;1199;100891;-82
2021/04/16 03:41:19;;;;;;;10.97;7.90;;;;;;;4.71;82.20;100033.70;115269;1199;103059;-82
2021/04/16 03:43:47;;;;;;;11.00;7.77;;;;;;;4.71;82.39;100034.56;115304;1199;102983;-82
2021/04/16 03:46:14;;;;;;;13.57;8.27;;;;;;;4.70;82.32;100034.58;115311;1199;103035;-82
2021/04/16 03:48:42;;;;;;;11.30;8.00;;;;;;;4.69;82.24;100032.88;115305;1199;101993;-82
2021/04/16 03:51:11;;;;;;;10.80;7.37;;;;;;;4.69;82.37;100023.39;115362;1199;103075;-82
2021/04/16 03:53:40;;;;;;;11.60;8.00;;;;;;;4.67;82.19;100025.14;115518;1197;103022;-83
2021/04/16 03:56:10;;;;;;;13.20;8.00;;;;;;;4.67;82.28;100032.01;115275;1199;103172;-82
2021/04/16 03:58:38;;;;;;;10.83;7.93;;;;;;;4.65;82.09;100032.03;115337;1196;103082;-82
2021/04/16 04:01:08;;;;;;;11.15;7.80;;;;;;;4.66;82.32;100036.32;115354;1199;103322;-82
2021/04/16 04:03:36;;;;;;;10.70;7.13;;;;;;;4.65;82.16;100033.76;115337;1200;103053;-83
2021/04/16 04:06:06;;;;;;;11.10;7.83;;;;;;;4.65;82.53;100042.36;115477;1200;103072;-83
2021/04/16 04:08:35;;;;;;;11.23;7.87;;;;;;;4.63;82.36;100038.95;115317;1199;102909;-83
2021/04/16 04:11:04;;;;;;;11.43;7.73;;;;;;;4.63;82.40;100045.84;115353;1198;102867;-83
2021/04/16 04:13:31;;;;;;;11.27;7.20;;;;;;;4.63;82.43;100031.20;115370;1198;103182;-82
2021/04/16 04:16:00;;;;;;;11.80;7.90;;;;;;;4.62;82.28;100034.66;115338;1199;102967;-82
2021/04/16 04:18:30;;;;;;;12.17;8.23;;;;;;;4.63;82.45;100036.36;115341;1199;103069;-82
2021/04/16 04:21:00;;;;;;;14.13;7.93;;;;;;;4.63;82.71;100038.95;115328;1198;103153;-82
2021/04/16 04:23:28;;;;;;;12.10;8.25;;;;;;;4.63;82.50;100031.20;115609;1199;102855;-82
2021/04/16 04:25:58;;;;;;;12.00;7.20;;;;;;;4.61;82.41;100032.95;115488;1199;103028;-82
2021/04/16 04:28:26;;;;;;;11.50;7.60;;;;;;;4.61;82.23;100040.70;115291;1199;101873;-82
2021/04/16 04:30:54;;;;;;;11.97;8.20;;;;;;;4.62;82.57;100041.55;115312;1198;103114;-82
2021/04/16 04:33:22;;;;;;;11.73;7.80;;;;;;;4.61;82.36;100043.27;115311;1199;102986;-82
2021/04/16 04:35:50;;;;;;;12.53;8.10;;;;;;;4.60;82.57;100036.40;115358;1199;103006;-82
2021/04/16 04:38:18;;;;;;;14.17;8.10;;;;;;;4.57;82.58;100031.28;115593;1199;102986;-82
2021/04/16 04:40:46;;;;;;;13.07;8.67;;;;;;;4.57;82.64;100035.59;115314;1199;101485;-82
2021/04/16 04:43:14;;;;;;;13.30;8.57;;;;;;;4.57;82.67;100041.61;115584;1199;103570;-82
2021/04/16 04:45:41;;;;;;;11.17;8.30;;;;;;;4.57;82.92;100039.02;115513;1198;103101;-82
2021/04/16 04:48:10;;;;;;;14.73;8.43;;;;;;;4.56;82.79;100034.73;115315;1198;103037;-82
2021/04/16 04:50:37;;;;;;;11.77;8.03;;;;;;;4.57;82.98;100036.44;115353;1199;103021;-82
2021/04/16 04:53:05;;;;;;;13.67;9.07;;;;;;;4.57;82.86;100030.42;115641;1199;101387;-82
2021/04/16 04:55:34;;;;;;;14.57;9.17;;;;;;;4.58;82.97;100037.30;115405;1199;101395;-83
2021/04/16 04:58:02;;;;;;;12.77;8.47;;;;;;;4.58;83.14;100038.15;115541;1198;103038;-82
2021/04/16 05:00:30;;;;;;;12.50;7.97;;;;;;;4.58;82.92;100037.30;115352;1199;103031;-83
2021/04/16 05:02:58;;;;;;;12.33;8.43;;;;;;;4.59;82.94;100036.42;115331;1199;103059;-82
2021/04/16 05:05:26;;;;;;;12.13;8.10;;;;;;;4.61;83.24;100026.92;115593;1199;103079;-82
2021/04/16 05:07:54;;;;;;;14.37;8.90;;;;;;;4.64;83.15;100016.55;115325;1200;103404;-82
2021/04/16 05:10:22;;;;;;;14.33;9.53;;;;;;;4.63;83.32;100028.61;115644;1198;103040;-82
2021/04/16 05:12:50;;;;;;;12.60;8.47;;;;;;;4.63;83.08;100030.34;115414;1200;102951;-82
2021/04/16 05:15:19;;;;;;;12.03;8.23;;;;;;;4.63;83.18;100026.03;115256;1199;104813;-82
2021/04/16 05:17:46;;;;;;;14.03;8.60;;;;;;;4.66;83.28;100031.16;115387;1198;103021;-82
2021/04/16 05:20:15;;;;;;;15.27;8.70;;;;;;;4.67;83.23;100025.14;115566;1199;101305;-82
2021/04/16 05:22:43;;;;;;;12.93;8.07;;;;;;;4.68;83.10;100024.27;115277;1199;103188;-82
2021/04/16 05:25:11;;;;;;;14.70;8.73;;;;;;;4.68;82.92;100021.69;115383;1199;102989;-82
2021/04/16 05:27:39;;;;;;;13.50;8.10;;;;;;;4.71;83.22;100031.98;115349;1199;103085;-82
2021/04/16 05:30:08;;;;;;;15.43;8.23;;;;;;;4.74;83.17;100028.50;115497;1198;103086;-82
2021/04/16 05:32:36;;;;;;;12.10;8.30;;;;;;;4.74;83.00;100029.35;115347;1199;103021;-82
2021/04/16 05:35:04;;;;;;;13.17;8.93;;;;;;;4.77;83.21;100031.90;115352;1199;103018;-82
2021/04/16 05:37:31;;;;;;;15.90;8.87;;;;;;;4.77;83.17;100023.29;115387;1199;103107;-82
2021/04/16 05:39:59;;;;;;;12.73;7.60;;;;;;;4.79;82.99;100026.70;115334;1199;103101;-82
2021/04/16 05:42:26;;;;;;;17.60;10.65;;;;;;;4.82;82.92;100024.94;115353;1198;103037;-82
2021/04/16 05:44:54;;;;;;;15.40;9.25;;;;;;;4.83;83.09;100024.06;115328;1197;103057;-82
2021/04/16 05:47:22;;;;;;;13.43;8.60;;;;;;;4.85;82.96;100024.92;115561;1199;103002;-82
2021/04/16 05:49:49;;;;;;;15.90;8.93;;;;;;;4.85;83.05;100016.32;115315;1199;103200;-82
2021/04/16 05:52:17;;;;;;;15.05;7.80;;;;;;;4.87;83.06;100022.31;115420;1199;103025;-82
2021/04/16 05:54:44;;;;;;;13.17;7.20;;;;;;;4.88;82.97;100018.86;115645;1200;103114;-82
2021/04/16 05:57:12;;;;;;;11.27;7.83;;;;;;;4.88;82.87;100021.44;115498;1199;102983;-83
2021/04/16 05:59:40;;;;;;;12.67;7.70;;;;;;;4.88;82.64;100020.59;115425;1199;102989;-82
2021/04/16 06:02:33;;;;;;;13.20;8.07;;;;;;;4.91;82.83;100020.55;115592;1199;103104;-82
2021/04/16 06:05:08;;;;;;;9.10;6.70;;;;;;;4.98;82.87;100016.99;115421;1199;103079;-83
2021/04/16 06:07:35;;;;;;;10.43;6.83;;;;;;;5.01;82.59;100015.22;115285;1199;103214;-82
2021/04/16 06:10:06;;;;;;;10.47;6.70;;;;;;;5.02;82.60;100010.91;115304;1198;103111;-82
2021/04/16 06:12:34;;;;;;;11.07;6.87;;;;;;;5.06;82.79;100012.59;115263;1198;103188;-82
2021/04/16 06:15:08;;;;;;;11.95;7.10;;;;;;;5.06;82.55;100008.28;115366;1198;103031;-82
2021/04/16 06:17:35;;;;;;;13.03;7.40;;;;;;;5.07;82.59;100014.30;115499;1199;103082;-83
2021/04/16 06:20:05;;;;;;;13.37;7.60;;;;;;;5.07;82.70;100016.89;115278;1200;101201;-82
2021/04/16 06:22:32;;;;;;;15.00;9.40;;;;;;;5.09;82.41;100012.55;115305;1200;102984;-82
2021/04/16 06:25:00;;;;;;;11.70;6.60;;;;;;;5.12;82.56;100020.25;115305;1199;103089;-82
2021/04/16 06:27:28;;;;;;;17.80;10.30;;;;;;;5.14;82.28;100014.19;115578;1200;102970;-82
2021/04/16 06:29:55;;;;;;;9.17;6.57;;;;;;;5.16;82.45;100016.75;115567;1199;101308;-82
2021/04/16 06:32:23;;;;;;;12.10;6.97;;;;;;;5.17;82.15;100015.87;115309;1198;103035;-82
2021/04/16 06:34:52;;;;;;;10.30;6.63;;;;;;;5.19;82.39;100021.87;115360;1199;103123;-82
2021/04/16 06:37:21;;;;;;;16.40;8.90;;;;;;;5.21;82.23;100020.14;115503;1198;102922;-83
2021/04/16 06:39:48;;;;;;;12.20;7.90;;;;;;;5.22;82.06;100021.86;115477;1198;104374;-83
2021/04/16 06:42:27;;;;;;;13.63;7.90;;;;;;;5.24;82.02;100014.08;115313;1199;103001;-83
2021/04/16 06:44:57;;;;;;;10.10;6.83;;;;;;;5.26;81.95;100009.73;115347;1198;103331;-82
2021/04/16 06:47:41;;;;;;;10.73;6.53;;;;;;;5.24;82.12;100017.52;115484;1199;103104;-83
2021/04/16 06:50:13;;;;;;;14.07;6.83;;;;;;;5.23;81.88;100020.13;115517;1199;103088;-82
2021/04/16 06:52:52;;;;;;;9.03;6.63;;;;;;;5.22;81.87;100023.58;115356;1200;103568;-82
2021/04/16 06:55:41;;;;;;;8.83;6.30;;;;;;;5.22;81.89;100027.02;115275;1199;101907;-82
2021/04/16 06:58:16;;;;;;;9.60;6.43;;;;;;;5.20;81.96;100023.58;115303;1199;103060;-82
2021/04/16 07:01:02;;;;;;;9.17;6.57;;;;;;;5.20;81.71;100017.55;115387;1199;103020;-82
2021/04/16 07:03:33;;;;;;;9.53;6.23;;;;;;;5.19;81.94;100015.84;115408;1200;103066;-82
2021/04/16 07:06:11;;;;;;;7.93;5.73;;;;;;;5.15;81.85;100022.80;115343;1199;103115;-82
2021/04/16 07:08:50;;;;;;;12.18;6.65;;;;;;;5.14;82.04;100018.50;115378;1200;103159;-82
2021/04/16 07:11:29;;;;;;;12.33;6.60;;;;;;;5.12;81.90;100022.84;115290;1199;103203;-82
2021/04/16 07:14:03;;;;;;;12.45;7.13;;;;;;;5.12;81.92;100030.59;115341;1199;101257;-82
2021/04/16 07:16:34;;;;;;;11.80;7.37;;;;;;;5.15;82.20;100027.96;115312;1199;103130;-82
2021/04/16 07:19:13;;;;;;;8.53;6.17;;;;;;;5.15;82.04;100026.23;115323;1199;101570;-82
2021/04/16 07:21:41;;;;;;;10.10;6.70;;;;;;;5.14;81.86;100027.11;115280;1199;103025;-83
2021/04/16 07:24:12;;;;;;;9.10;6.03;;;;;;;5.16;82.05;100022.77;115584;1198;102000;-83
2021/04/16 07:26:52;;;;;;;8.90;6.20;;;;;;;5.19;82.01;100018.42;115281;1199;101635;-83
2021/04/16 07:29:43;;;;;;;12.83;6.17;;;;;;;5.21;81.67;100020.14;115331;1199;102963;-84
2021/04/16 07:32:28;;;;;;;9.77;6.43;;;;;;;5.22;82.09;100015.83;115290;1199;103034;-83
2021/04/16 07:35:15;;;;;;;10.87;6.83;;;;;;;5.22;81.62;99997.73;115521;1199;101859;-82
2021/04/16 07:37:47;;;;;;;9.60;6.73;;;;;;;5.22;81.49;99998.59;115501;1199;102992;-82
2021/04/16 07:40:26;;;;;;;9.53;6.00;;;;;;;5.24;81.54;100009.75;115269;1198;101925;-82
2021/04/16 07:42:54;;;;;;;8.73;6.00;;;;;;;5.25;81.53;100008.88;115454;1198;102868;-82
2021/04/16 07:45:24;;;;;;;9.17;5.67;;;;;;;5.27;81.64;100014.88;115288;1200;102977;-82
2021/04/16 07:48:19;;;;;;;9.20;6.17;;;;;;;5.29;81.57;100005.36;115296;1198;103064;-82
2021/04/16 07:50:49;;;;;;;11.07;6.50;;;;;;;5.32;81.78;100012.22;115608;1199;102983;-82
2021/04/16 07:53:44;;;;;;;12.87;5.53;;;;;;;5.33;81.61;100013.92;115355;1200;103104;-82
2021/04/16 07:56:18;;;;;;;10.83;5.83;;;;;;;5.32;81.49;100015.66;115216;1200;102999;-83
2021/04/16 07:59:01;;;;;;;13.05;6.15;;;;;;;5.32;81.46;100017.39;115545;1199;103134;-83
2021/04/16 08:01:33;;;;;;;11.87;6.60;;;;;;;5.31;81.61;100037.22;115250;1199;103037;-82
2021/04/16 08:04:08;;;;;;;9.40;6.53;;;;;;;5.32;81.84;100033.76;115264;1200;102964;-82
2021/04/16 08:06:44;;;;;;;9.53;6.17;;;;;;;5.31;81.68;100026.88;115370;1198;103064;-82
2021/04/16 08:09:13;;;;;;;9.40;6.23;;;;;;;5.32;81.53;100017.39;115356;1199;102983;-82
2021/04/16 08:11:41;;;;;;;9.40;6.30;;;;;;;5.30;81.50;100030.34;115437;1199;103017;-81
2021/04/16 08:14:22;;;;;;;9.57;5.83;;;;;;;5.30;81.83;100029.48;115270;1200;103040;-82
2021/04/16 08:17:16;;;;;;;10.73;5.90;;;;;;;5.29;81.56;100032.95;115325;1199;103012;-82
2021/04/16 08:19:45;;;;;;;12.97;5.80;;;;;;;5.32;81.95;100033.76;115334;1199;101135;-82
2021/04/16 08:22:23;;;;;;;12.03;7.00;;;;;;;5.34;81.78;100028.56;115325;1200;103089;-82
2021/04/16 08:25:08;;;;;;;11.47;8.17;;;;;;;5.33;82.04;100025.13;115394;1199;103117;-82
2021/04/16 08:27:48;;;;;;;9.40;6.50;;;;;;;5.35;81.84;100023.36;115374;1199;103153;-83
2021/04/16 08:30:19;;;;;;;8.85;6.30;;;;;;;5.35;81.93;100027.69;115379;1199;101260;-82
2021/04/16 08:32:55;;;;;;;8.27;5.90;;;;;;;5.38;81.78;100018.14;115622;1199;103018;-82
2021/04/16 08:35:56;;;;;;;7.53;5.90;;;;;;;5.44;81.92;100031.00;115361;1199;103063;-82
2021/04/16 08:38:27;;;;;;;8.60;5.80;;;;;;;5.46;81.89;100015.46;115415;1198;102877;-83
2021/04/16 08:40:59;;;;;;;11.57;6.00;;;;;;;5.49;81.22;100019.73;115413;1199;103503;-82
2021/04/16 08:43:36;;;;;;;8.73;5.53;;;;;;;5.50;81.27;100011.94;115351;1198;101263;-82
2021/04/16 08:46:27;;;;;;;7.63;5.33;;;;;;;5.52;81.37;100019.67;115570;1199;103114;-82
2021/04/16 08:49:07;;;;;;;9.20;6.37;;;;;;;5.55;81.20;100023.06;115369;1200;102862;-82
2021/04/16 08:51:37;;;;;;;7.45;5.70;;;;;;;5.59;81.04;100016.99;115346;1199;102877;-83
2021/04/16 08:54:25;;;;;;;7.47;5.70;;;;;;;5.61;80.66;100019.55;115326;1199;103070;-82
2021/04/16 08:57:08;;;;;;;8.60;5.77;;;;;;;5.65;80.86;100026.38;115362;1199;101985;-83
2021/04/16 09:00:07;;;;;;;9.33;5.70;;;;;;;5.68;81.02;100021.16;115293;1199;103130;-82
2021/04/16 09:02:44;;;;;;;8.37;6.00;;;;;;;5.77;80.75;100026.20;115203;1200;103041;-84
2021/04/16 09:05:12;;;;;;;11.63;6.23;;;;;;;5.83;80.80;100026.09;115599;1198;101876;-82
2021/04/16 09:08:09;;;;;;;7.20;4.93;;;;;;;5.88;80.17;100019.09;115572;1200;103114;-83
2021/04/16 09:10:43;;;;;;;8.17;5.33;;;;;;;5.93;80.00;100022.52;115476;1199;101355;-82
2021/04/16 09:13:36;;;;;;;8.13;5.90;;;;;;;6.00;80.41;100024.11;115593;1199;103437;-82
2021/04/16 09:16:48;;;;;;;9.47;5.60;;;;;;;6.09;80.27;100017.90;115481;1199;103577;-82
2021/04/16 09:19:22;;;;;;;6.20;5.37;;;;;;;6.19;80.30;100024.64;115307;1199;103091;-82
2021/04/16 09:22:03;;;;;;;9.97;6.20;;;;;;;6.23;79.67;100023.69;115516;1200;103094;-82
2021/04/16 09:24:54;;;;;;;8.00;5.47;;;;;;;6.26;79.71;100017.60;115558;1199;103081;-82
2021/04/16 09:27:31;;;;;;;7.67;5.37;;;;;;;6.35;79.88;100023.48;115324;1199;103022;-83
2021/04/16 09:29:59;;;;;;;8.47;5.30;;;;;;;6.41;79.26;100019.91;115609;1199;103031;-82
2021/04/16 09:32:32;;;;;;;6.13;5.30;;;;;;;6.44;79.53;100019.84;115625;1199;103085;-82
2021/04/16 09:35:31;;;;;;;8.70;6.13;;;;;;;6.46;79.07;100012.05;115573;1199;103079;-82
2021/04/16 09:38:23;;;;;;;7.77;6.00;;;;;;;6.42;78.71;100020.77;115523;1199;103018;-82
2021/04/16 09:41:13;;;;;;;9.63;6.70;;;;;;;6.40;78.65;100020.80;115379;1199;102143;-82
2021/04/16 09:43:42;;;;;;;10.25;7.10;;;;;;;6.44;79.15;100014.66;115293;1199;103073;-83
2021/04/16 09:46:31;;;;;;;10.53;6.70;;;;;;;6.49;79.18;100020.64;115325;1198;102823;-83
2021/04/16 09:49:22;;;;;;;9.60;6.23;;;;;;;6.53;78.93;100019.69;115591;1198;102809;-82
2021/04/16 09:51:56;;;;;;;8.37;6.30;;;;;;;6.62;79.21;100023.82;115373;1199;101314;-83
2021/04/16 09:54:36;;;;;;;8.90;6.23;;;;;;;6.69;78.46;100014.21;115403;1200;103114;-84
2021/04/16 09:57:05;;;;;;;9.70;6.10;;;;;;;6.75;78.23;100014.08;115318;1198;103146;-84
2021/04/16 09:59:41;;;;;;;10.37;6.00;;;;;;;6.80;78.20;100007.05;115605;1198;102842;-84
2021/04/16 10:02:16;;;;;;;7.73;6.20;;;;;;;6.86;78.05;100012.13;115424;1199;102992;-82
2021/04/16 10:04:56;;;;;;;8.23;5.73;;;;;;;6.89;77.69;100001.69;115404;1199;102954;-82
2021/04/16 10:08:04;;;;;;;7.83;5.87;;;;;;;6.87;78.01;100012.09;115630;1200;102021;-82
2021/04/16 10:10:38;;;;;;;12.55;6.90;;;;;;;6.90;77.80;100008.58;115055;1201;103124;-82
2021/04/16 10:13:30;;;;;;;9.50;5.80;;;;;;;6.92;77.78;100006.81;115133;1202;103108;-83
2021/04/16 10:16:00;;;;;;;9.50;5.90;;;;;;;6.94;77.95;100005.89;115282;1202;103545;-83
2021/04/16 10:18:33;;;;;;;9.15;6.20;;;;;;;6.96;77.59;100005.84;115080;1201;103177;-82
2021/04/16 10:21:16;;;;;;;8.30;5.77;;;;;;;6.98;77.79;100004.08;115023;1203;103095;-82
2021/04/16 10:23:50;;;;;;;9.03;5.90;;;;;;;6.97;77.44;99994.59;115065;1203;103495;-82
2021/04/16 11:16:10;;;;;;;10.30;5.37;;;;;;;6.72;77.66;100009.81;115351;1198;103095;-82
2021/04/16 12:38:37;;;;;;;9.03;6.60;;;;;;;6.73;79.03;100044.36;115587;1200;103028;-82
2021/04/16 12:41:22;;;;;;;8.93;6.77;;;;;;;6.72;79.11;100043.50;115349;1198;103076;-82
2021/04/16 12:43:51;;;;;;;9.17;6.40;;;;;;;6.69;79.06;100046.16;115260;1199;103077;-82
2021/04/16 12:46:23;;;;;;;12.90;8.07;;;;;;;6.69;79.61;100035.80;115320;1199;103006;-82
2021/04/16 12:48:51;;;;;;;11.23;7.50;;;;;;;6.72;79.42;100043.50;115271;1199;102826;-83
2021/04/16 12:51:19;;;;;;;12.60;8.13;;;;;;;6.75;79.21;100035.66;115343;1198;102998;-83
2021/04/16 12:53:46;;;;;;;14.53;9.03;;;;;;;6.77;79.45;100040.81;115318;1199;103124;-84
2021/04/16 12:56:21;;;;;;;12.10;7.90;;;;;;;6.79;79.75;100041.63;115571;1199;103031;-86
2021/04/16 12:58:49;;;;;;;10.20;7.90;;;;;;;6.78;79.29;100039.92;115296;1199;104713;-82
2021/04/16 13:01:29;;;;;;;10.13;6.47;;;;;;;6.76;79.28;100041.70;115305;1198;103130;-83
2021/04/16 13:03:58;;;;;;;8.40;6.37;;;;;;;6.72;78.90;100034.88;115337;1198;102986;-82
2021/04/16 13:06:32;;;;;;;9.23;6.87;;;;;;;6.66;79.60;100036.72;115418;1200;101910;-82
2021/04/16 13:09:01;;;;;;;8.20;6.67;;;;;;;6.64;79.61;100041.08;115303;1197;103091;-82
2021/04/16 13:11:28;;;;;;;7.90;6.60;;;;;;;6.59;79.22;100039.44;115223;1199;101365;-82
2021/04/16 13:13:56;;;;;;;9.10;6.50;;;;;;;6.54;79.32;100034.34;115318;1200;103481;-82
2021/04/16 13:16:25;;;;;;;8.50;6.53;;;;;;;6.52;79.99;100033.53;115369;1199;103056;-81
2021/04/16 13:18:59;;;;;;;8.60;6.23;;;;;;;6.48;79.83;100031.88;115321;1199;103108;-81
2021/04/16 13:21:37;;;;;;;8.40;6.30;;;;;;;6.45;79.75;100034.51;115318;1199;103063;-81
2021/04/16 13:24:07;;;;;;;8.53;6.30;;;;;;;6.45;79.68;100037.09;115295;1199;103117;-81
2021/04/16 13:26:37;;;;;;;9.93;6.90;;;;;;;6.44;80.04;100037.98;115362;1200;103111;-83
2021/04/16 13:29:05;;;;;;;10.83;7.07;;;;;;;6.41;80.16;100035.45;115392;1199;103034;-83
2021/04/16 13:31:35;;;;;;;11.05;7.00;;;;;;;6.36;80.14;100034.70;115288;1199;103011;-81
2021/04/16 13:34:04;;;;;;;7.97;6.43;;;;;;;6.33;80.12;100037.34;115373;1199;103128;-82
2021/04/16 13:36:34;;;;;;;11.60;6.93;;;;;;;6.29;80.25;100036.55;115383;1199;102985;-83
2021/04/16 13:39:04;;;;;;;7.90;6.50;;;;;;;6.26;80.38;100040.91;115679;1199;103011;-82
2021/04/16 13:41:36;;;;;;;8.13;7.13;;;;;;;6.24;80.47;100038.34;115386;1199;102986;-82
2021/04/16 13:44:05;;;;;;;10.17;7.30;;;;;;;6.22;80.34;100039.27;115514;1198;103067;-82